createdAt,value
2019-06-20T20:56:02.432Z,7.6
2019-06-20T20:57:00.628Z,7.7
2019-06-20T20:58:00.743Z,7.6
2019-06-20T20:59:00.917Z,7.5
2019-06-20T21:00:00.933Z,7.5
2019-06-20T21:01:00.928Z,7.7
2019-06-20T21:02:01.056Z,7.6
2019-06-20T21:03:02.248Z,8.1
2019-06-20T21:04:01.558Z,8.3
2019-06-20T21:05:01.500Z,8.7
2019-06-20T21:06:01.774Z,8.3
2019-06-20T21:07:55.376Z,8.2
2019-06-20T21:10:19.205Z,8
2019-06-20T21:10:41.404Z,8.1
2019-06-20T21:13:04.758Z,9.3
2019-06-20T21:13:53.173Z,9
2019-06-20T21:14:40.687Z,9.2
2019-06-20T21:22:40.037Z,9.9
2019-06-20T21:23:40.072Z,11
2019-06-20T21:24:40.169Z,11.6
2019-06-20T21:25:40.254Z,11.5
2019-06-20T21:26:49.284Z,12.2
2019-06-20T21:27:40.442Z,12.3
2019-06-20T21:28:40.545Z,12.9
2019-06-20T21:29:40.619Z,12.1
2019-06-20T21:30:40.720Z,12.4
2019-06-20T21:31:40.855Z,12.8
2019-06-20T21:32:40.954Z,11.4
2019-06-20T21:33:41.045Z,12
2019-06-20T21:34:41.143Z,11.7
2019-06-20T21:35:41.272Z,12.7
2019-06-20T21:36:41.636Z,12.6
2019-06-20T21:37:41.385Z,12.1
2019-06-20T21:38:41.567Z,12.4
2019-06-20T21:39:41.439Z,13.1
2019-06-20T21:40:42.002Z,13
2019-06-20T21:41:42.019Z,13
2019-06-20T21:42:41.781Z,13.4
2019-06-20T21:43:41.874Z,14
2019-06-20T21:44:41.963Z,13.2
2019-06-20T21:45:42.051Z,13.6
2019-06-20T21:46:42.160Z,14.1
2019-06-20T21:47:42.218Z,15.1
2019-06-20T21:48:42.325Z,16
2019-06-20T21:49:42.417Z,15
2019-06-20T21:50:42.473Z,15.6
2019-06-20T21:51:44.572Z,16.5
2019-06-20T21:52:42.743Z,17.1
2019-06-20T21:53:42.801Z,16.6
2019-06-20T21:54:42.904Z,17.5
2019-06-20T21:55:42.976Z,18
2019-06-20T21:56:43.115Z,18.799999
2019-06-20T21:57:43.246Z,18.299999
2019-06-20T21:58:43.323Z,18
2019-06-20T21:59:43.399Z,18.700001
2019-06-20T22:00:43.503Z,19.799999
2019-06-20T22:01:43.611Z,18.9
2019-06-20T22:02:43.923Z,20
2019-06-20T22:03:43.853Z,19.9
2019-06-20T22:04:53.941Z,19.700001
2019-06-20T22:05:43.988Z,20
2019-06-20T22:06:44.196Z,20
2019-06-20T22:07:44.178Z,20.799999
2019-06-20T22:08:44.234Z,21.1
2019-06-20T22:09:44.309Z,20.799999
2019-06-20T22:10:44.398Z,21.5
2019-06-20T22:11:44.499Z,23.5
2019-06-20T22:12:44.625Z,22.799999
2019-06-20T22:13:44.683Z,23.299999
2019-06-20T22:14:44.849Z,22.4
2019-06-20T22:15:44.904Z,23.1
2019-06-20T22:16:45.986Z,23.1
2019-06-20T22:17:45.065Z,21.9
2019-06-20T22:18:45.174Z,22.5
2019-06-20T22:19:45.235Z,22
2019-06-20T22:20:45.319Z,22.200001
2019-06-20T22:21:45.426Z,23.1
2019-06-20T22:22:45.536Z,23.200001
2019-06-20T22:23:45.590Z,22.5
2019-06-20T22:24:45.687Z,22.9
2019-06-20T22:25:45.765Z,22.700001
2019-06-20T22:26:45.846Z,22.9
2019-06-20T22:27:46.196Z,23.700001
2019-06-20T22:28:46.110Z,24.200001
2019-06-20T22:29:46.215Z,23.299999
2019-06-20T22:30:46.328Z,23.1
2019-06-20T22:31:46.426Z,24.5
2019-06-20T22:32:46.533Z,23
2019-06-20T22:33:46.508Z,23.5
2019-06-20T22:34:46.621Z,24.200001
2019-06-20T22:35:46.681Z,24.6
2019-06-20T22:36:46.751Z,24.299999
2019-06-20T22:37:46.838Z,25.4
2019-06-20T22:38:46.944Z,24.799999
2019-06-20T22:39:47.009Z,24.6
2019-06-20T22:40:47.134Z,25.799999
2019-06-20T22:41:47.234Z,26.200001
2019-06-20T22:42:47.340Z,26.200001
2019-06-20T22:43:47.440Z,26.4
2019-06-20T22:44:47.575Z,27.1
2019-06-20T22:45:48.647Z,26
2019-06-20T22:46:47.777Z,27
2019-06-20T22:47:47.853Z,26.299999
2019-06-20T22:48:47.979Z,25.799999
2019-06-20T22:49:48.069Z,25.799999
2019-06-20T22:50:48.159Z,26.700001
2019-06-20T22:51:48.243Z,26.200001
2019-06-20T22:52:48.326Z,25.799999
2019-06-20T22:53:49.239Z,25.5
2019-06-20T22:54:48.469Z,26.799999
2019-06-20T22:55:48.563Z,25.5
2019-06-20T22:56:48.629Z,25.200001
2019-06-20T22:57:48.716Z,26.799999
2019-06-20T22:58:48.858Z,26.1
2019-06-20T22:59:48.938Z,25.4
2019-06-20T23:00:49.058Z,25.1
2019-06-20T23:01:49.121Z,25.1
2019-06-20T23:02:49.268Z,25.299999
2019-06-20T23:03:49.284Z,25.1
2019-06-20T23:04:49.177Z,26
2019-06-20T23:05:49.363Z,25.700001
2019-06-20T23:06:56.141Z,26.9
2019-06-20T23:07:49.310Z,27.1
2019-06-20T23:08:49.391Z,27.5
2019-06-20T23:09:49.520Z,26.1
2019-06-20T23:10:49.643Z,27.299999
2019-06-20T23:11:49.754Z,28.1
2019-06-20T23:12:49.862Z,27.5
2019-06-20T23:13:49.961Z,26.200001
2019-06-20T23:14:50.055Z,27.200001
2019-06-20T23:15:50.158Z,28.1
2019-06-20T23:16:50.246Z,28.4
2019-06-20T23:17:50.399Z,27.799999
2019-06-20T23:18:50.496Z,28.1
2019-06-20T23:19:50.567Z,26.700001
2019-06-20T23:21:03.887Z,28.1
2019-06-20T23:21:50.744Z,27.299999
2019-06-20T23:22:50.840Z,29.4
2019-06-20T23:23:51.039Z,29.299999
2019-06-20T23:24:51.136Z,29.200001
2019-06-20T23:25:51.032Z,28.9
2019-06-20T23:26:51.111Z,29.6
2019-06-20T23:27:51.174Z,29.5
2019-06-20T23:28:51.255Z,29
2019-06-20T23:29:51.451Z,29.9
2019-06-20T23:30:51.429Z,29.700001
2019-06-20T23:31:51.464Z,30.1
2019-06-20T23:32:51.554Z,29
2019-06-20T23:33:51.641Z,30.299999
2019-06-20T23:34:51.755Z,30.299999
2019-06-20T23:35:51.849Z,29.9
2019-06-20T23:36:51.923Z,29.6
2019-06-20T23:37:52.007Z,29.5
2019-06-20T23:38:52.105Z,30.200001
2019-06-20T23:39:52.251Z,28.5
2019-06-20T23:40:52.386Z,29
2019-06-20T23:41:52.464Z,30.200001
2019-06-20T23:42:52.535Z,30.6
2019-06-20T23:43:52.641Z,30.6
2019-06-20T23:44:52.715Z,30.6
2019-06-20T23:45:52.829Z,30
2019-06-20T23:46:52.929Z,30.200001
2019-06-20T23:47:52.990Z,30.200001
2019-06-20T23:48:53.093Z,30
2019-06-20T23:49:53.186Z,30.4
2019-06-20T23:50:53.311Z,30.4
2019-06-20T23:51:53.399Z,30.799999
2019-06-20T23:52:53.493Z,30.6
2019-06-20T23:53:53.592Z,30.9
2019-06-20T23:54:53.726Z,30.9
2019-06-20T23:55:53.820Z,29.9
2019-06-20T23:56:53.952Z,30
2019-06-20T23:57:54.035Z,29.9
2019-06-20T23:58:54.212Z,30.200001
2019-06-20T23:59:54.117Z,28.700001
